sensor_id;sensor_type;location;lat;lon;timestamp;pressure;altitude;pressure_sealevel;temperature;humidity
14790;BME280;7486;51.010;10.366;2022-12-18T00:01:43;99653.72;;;-11.27;77.39
14790;BME280;7486;51.010;10.366;2022-12-18T00:04:22;99545.25;;;-11.89;77.31
14790;BME280;7486;51.010;10.366;2022-12-18T00:06:51;99547.06;;;-11.94;76.48
14790;BME280;7486;51.010;10.366;2022-12-18T00:10:00;99666.59;;;-11.30;77.42
14790;BME280;7486;51.010;10.366;2022-12-18T00:14:17;99678.41;;;-11.24;78.35
14790;BME280;7486;51.010;10.366;2022-12-18T00:17:16;99678.25;;;-11.55;77.51
14790;BME280;7486;51.010;10.366;2022-12-18T00:19:55;99681.91;;;-11.67;78.35
14790;BME280;7486;51.010;10.366;2022-12-18T00:23:08;99618.59;;;-11.94;78.82
14790;BME280;7486;51.010;10.366;2022-12-18T00:25:53;99604.66;;;-11.79;78.84
14790;BME280;7486;51.010;10.366;2022-12-18T00:28:30;99618.59;;;-11.94;78.25
14790;BME280;7486;51.010;10.366;2022-12-18T00:31:18;99631.78;;;-11.74;79.19
14790;BME280;7486;51.010;10.366;2022-12-18T00:34:09;99700.03;;;-11.37;78.48
14790;BME280;7486;51.010;10.366;2022-12-18T00:37:33;99676.72;;;-12.05;78.54
14790;BME280;7486;51.010;10.366;2022-12-18T00:40:24;99654.13;;;-11.82;80.13
14790;BME280;7486;51.010;10.366;2022-12-18T00:42:52;99685.00;;;-11.51;80.57
14790;BME280;7486;51.010;10.366;2022-12-18T00:45:19;99699.31;;;-11.44;79.11
14790;BME280;7486;51.010;10.366;2022-12-18T00:47:50;99694.94;;;-11.39;78.88
14790;BME280;7486;51.010;10.366;2022-12-18T00:50:58;99507.72;;;-12.25;79.02
14790;BME280;7486;51.010;10.366;2022-12-18T00:54:53;99397.03;;;-13.39;79.45
14790;BME280;7486;51.010;10.366;2022-12-18T00:57:57;99650.09;;;-11.93;80.32
14790;BME280;7486;51.010;10.366;2022-12-18T01:00:52;99604.69;;;-12.21;80.29
14790;BME280;7486;51.010;10.366;2022-12-18T01:04:02;99498.25;;;-12.58;80.40
14790;BME280;7486;51.010;10.366;2022-12-18T01:07:23;99244.41;;;-13.94;79.24
14790;BME280;7486;51.010;10.366;2022-12-18T01:10:33;99628.69;;;-11.49;79.50
14790;BME280;7486;51.010;10.366;2022-12-18T01:13:15;99425.81;;;-12.93;78.39
14790;BME280;7486;51.010;10.366;2022-12-18T01:15:48;99645.41;;;-11.35;78.86
14790;BME280;7486;51.010;10.366;2022-12-18T01:18:20;99708.41;;;-10.94;78.37
14790;BME280;7486;51.010;10.366;2022-12-18T01:20:50;99661.31;;;-11.22;78.26
14790;BME280;7486;51.010;10.366;2022-12-18T01:23:20;99476.47;;;-12.35;75.68
14790;BME280;7486;51.010;10.366;2022-12-18T01:25:47;99590.16;;;-11.79;76.32
14790;BME280;7486;51.010;10.366;2022-12-18T01:28:14;99662.38;;;-11.31;76.22
14790;BME280;7486;51.010;10.366;2022-12-18T01:30:41;99694.59;;;-11.63;76.65
14790;BME280;7486;51.010;10.366;2022-12-18T01:33:07;99733.66;;;-11.55;77.32
14790;BME280;7486;51.010;10.366;2022-12-18T01:35:42;99728.72;;;-11.64;78.60
14790;BME280;7486;51.010;10.366;2022-12-18T01:38:09;99642.59;;;-12.45;79.73
14790;BME280;7486;51.010;10.366;2022-12-18T01:40:36;99728.44;;;-11.94;79.63
14790;BME280;7486;51.010;10.366;2022-12-18T01:43:03;99431.31;;;-13.57;79.70
14790;BME280;7486;51.010;10.366;2022-12-18T01:45:31;99739.38;;;-11.87;80.17
14790;BME280;7486;51.010;10.366;2022-12-18T01:48:03;99684.09;;;-12.34;80.54
14790;BME280;7486;51.010;10.366;2022-12-18T01:50:36;99583.69;;;-12.81;80.66
14790;BME280;7486;51.010;10.366;2022-12-18T01:53:14;99489.56;;;-12.91;80.70
14790;BME280;7486;51.010;10.366;2022-12-18T01:55:48;99738.59;;;-11.09;79.47
14790;BME280;7486;51.010;10.366;2022-12-18T01:58:18;99708.22;;;-11.23;78.17
14790;BME280;7486;51.010;10.366;2022-12-18T02:00:46;99577.84;;;-12.00;78.22
14790;BME280;7486;51.010;10.366;2022-12-18T02:03:13;99723.91;;;-11.00;77.50
14790;BME280;7486;51.010;10.366;2022-12-18T02:06:01;99725.88;;;-10.76;76.44
14790;BME280;7486;51.010;10.366;2022-12-18T02:08:48;99722.00;;;-10.92;76.07
14790;BME280;7486;51.010;10.366;2022-12-18T02:16:53;99716.94;;;-10.95;75.22
14790;BME280;7486;51.010;10.366;2022-12-18T02:25:16;99720.81;;;-11.54;75.69
14790;BME280;7486;51.010;10.366;2022-12-18T02:27:49;99655.56;;;-12.10;76.13
14790;BME280;7486;51.010;10.366;2022-12-18T02:30:20;99709.66;;;-11.91;76.19
14790;BME280;7486;51.010;10.366;2022-12-18T02:32:52;99712.31;;;-11.96;76.88
14790;BME280;7486;51.010;10.366;2022-12-18T02:35:23;99580.75;;;-12.59;77.49
14790;BME280;7486;51.010;10.366;2022-12-18T02:37:53;99649.34;;;-11.98;77.38
14790;BME280;7486;51.010;10.366;2022-12-18T02:40:22;99578.22;;;-12.59;76.90
14790;BME280;7486;51.010;10.366;2022-12-18T02:42:50;99658.94;;;-12.09;76.85
14790;BME280;7486;51.010;10.366;2022-12-18T02:45:18;99435.75;;;-13.66;76.12
14790;BME280;7486;51.010;10.366;2022-12-18T02:47:49;99645.28;;;-12.53;76.30
14790;BME280;7486;51.010;10.366;2022-12-18T02:50:33;99619.34;;;-12.75;76.87
14790;BME280;7486;51.010;10.366;2022-12-18T02:56:02;99701.13;;;-11.90;76.92
14790;BME280;7486;51.010;10.366;2022-12-18T03:01:30;99657.41;;;-12.18;77.47
14790;BME280;7486;51.010;10.366;2022-12-18T03:04:38;99723.41;;;-11.97;76.26
14790;BME280;7486;51.010;10.366;2022-12-18T03:07:10;99608.16;;;-12.67;75.40
14790;BME280;7486;51.010;10.366;2022-12-18T03:09:43;99658.59;;;-12.36;75.67
14790;BME280;7486;51.010;10.366;2022-12-18T03:12:14;99718.94;;;-11.86;76.03
14790;BME280;7486;51.010;10.366;2022-12-18T03:14:43;99662.28;;;-12.50;75.71
14790;BME280;7486;51.010;10.366;2022-12-18T03:17:15;99541.38;;;-12.89;75.92
14790;BME280;7486;51.010;10.366;2022-12-18T03:19:46;99648.34;;;-11.91;74.18
14790;BME280;7486;51.010;10.366;2022-12-18T03:22:16;99649.97;;;-11.87;74.25
14790;BME280;7486;51.010;10.366;2022-12-18T03:24:48;99650.88;;;-11.90;73.49
14790;BME280;7486;51.010;10.366;2022-12-18T03:27:18;99585.88;;;-12.59;73.55
14790;BME280;7486;51.010;10.366;2022-12-18T03:30:01;99725.44;;;-11.71;74.41
14790;BME280;7486;51.010;10.366;2022-12-18T03:32:35;99680.69;;;-11.89;74.78
14790;BME280;7486;51.010;10.366;2022-12-18T03:35:06;99671.59;;;-12.05;73.89
14790;BME280;7486;51.010;10.366;2022-12-18T03:37:36;99676.19;;;-12.22;73.22
14790;BME280;7486;51.010;10.366;2022-12-18T03:40:05;99610.06;;;-12.34;74.31
14790;BME280;7486;51.010;10.366;2022-12-18T03:42:46;99716.16;;;-11.75;74.49
14790;BME280;7486;51.010;10.366;2022-12-18T03:45:27;99714.09;;;-12.01;73.24
14790;BME280;7486;51.010;10.366;2022-12-18T03:48:01;99717.53;;;-12.02;74.32
14790;BME280;7486;51.010;10.366;2022-12-18T03:56:02;99585.41;;;-13.29;74.07
14790;BME280;7486;51.010;10.366;2022-12-18T03:58:37;99699.53;;;-12.40;74.63
14790;BME280;7486;51.010;10.366;2022-12-18T04:01:17;99558.53;;;-13.46;74.57
14790;BME280;7486;51.010;10.366;2022-12-18T04:03:47;99646.44;;;-13.21;75.59
14790;BME280;7486;51.010;10.366;2022-12-18T04:06:18;99582.59;;;-13.65;76.08
14790;BME280;7486;51.010;10.366;2022-12-18T04:08:46;99629.59;;;-13.28;75.65
14790;BME280;7486;51.010;10.366;2022-12-18T04:11:16;99561.63;;;-13.81;75.42
14790;BME280;7486;51.010;10.366;2022-12-18T04:13:45;99583.09;;;-13.97;76.81
14790;BME280;7486;51.010;10.366;2022-12-18T04:16:29;99559.13;;;-13.84;77.12
14790;BME280;7486;51.010;10.366;2022-12-18T04:19:00;99657.63;;;-13.28;77.47
14790;BME280;7486;51.010;10.366;2022-12-18T04:21:30;99669.91;;;-12.99;77.20
14790;BME280;7486;51.010;10.366;2022-12-18T04:23:57;99527.88;;;-13.97;76.74
14790;BME280;7486;51.010;10.366;2022-12-18T04:26:24;99672.84;;;-13.25;77.09
14790;BME280;7486;51.010;10.366;2022-12-18T04:29:10;99591.75;;;-13.52;76.79
14790;BME280;7486;51.010;10.366;2022-12-18T04:31:37;99665.19;;;-13.22;77.08
14790;BME280;7486;51.010;10.366;2022-12-18T04:34:04;99723.41;;;-12.95;77.50
14790;BME280;7486;51.010;10.366;2022-12-18T04:36:37;99726.03;;;-13.01;78.48
14790;BME280;7486;51.010;10.366;2022-12-18T04:39:04;99701.41;;;-13.02;78.88
14790;BME280;7486;51.010;10.366;2022-12-18T04:41:31;99725.81;;;-12.86;79.62
14790;BME280;7486;51.010;10.366;2022-12-18T04:43:57;99738.69;;;-12.93;78.90
14790;BME280;7486;51.010;10.366;2022-12-18T04:46:24;99662.94;;;-13.42;79.28
14790;BME280;7486;51.010;10.366;2022-12-18T04:48:51;99313.22;;;-15.06;77.30
14790;BME280;7486;51.010;10.366;2022-12-18T04:51:18;99667.19;;;-12.89;77.19
14790;BME280;7486;51.010;10.366;2022-12-18T04:53:52;99738.69;;;-12.43;76.68
14790;BME280;7486;51.010;10.366;2022-12-18T04:56:19;99668.78;;;-12.83;76.28
14790;BME280;7486;51.010;10.366;2022-12-18T04:58:46;99609.66;;;-13.05;75.49
14790;BME280;7486;51.010;10.366;2022-12-18T05:01:15;99727.50;;;-12.34;74.97
14790;BME280;7486;51.010;10.366;2022-12-18T05:03:42;99682.16;;;-12.69;74.60
14790;BME280;7486;51.010;10.366;2022-12-18T05:06:10;99647.94;;;-13.06;75.20
14790;BME280;7486;51.010;10.366;2022-12-18T05:08:37;99732.00;;;-12.48;75.32
14790;BME280;7486;51.010;10.366;2022-12-18T05:11:09;99737.31;;;-12.60;74.62
14790;BME280;7486;51.010;10.366;2022-12-18T05:13:37;99653.22;;;-13.75;75.38
14790;BME280;7486;51.010;10.366;2022-12-18T05:16:06;99775.03;;;-12.81;76.09
14790;BME280;7486;51.010;10.366;2022-12-18T05:18:46;99707.97;;;-12.87;76.04
14790;BME280;7486;51.010;10.366;2022-12-18T05:21:13;99635.75;;;-13.40;75.63
14790;BME280;7486;51.010;10.366;2022-12-18T05:24:01;99739.63;;;-13.00;76.25
14790;BME280;7486;51.010;10.366;2022-12-18T05:27:56;99545.50;;;-14.44;76.46
14790;BME280;7486;51.010;10.366;2022-12-18T05:30:23;99655.94;;;-13.87;77.34
14790;BME280;7486;51.010;10.366;2022-12-18T05:32:50;99629.09;;;-14.11;77.95
14790;BME280;7486;51.010;10.366;2022-12-18T05:35:17;99679.09;;;-14.07;77.33
14790;BME280;7486;51.010;10.366;2022-12-18T05:37:44;99740.56;;;-13.65;77.89
14790;BME280;7486;51.010;10.366;2022-12-18T05:40:11;99667.75;;;-13.83;79.26
14790;BME280;7486;51.010;10.366;2022-12-18T05:42:38;99765.25;;;-13.08;78.93
14790;BME280;7486;51.010;10.366;2022-12-18T05:45:06;99753.09;;;-12.91;78.90
14790;BME280;7486;51.010;10.366;2022-12-18T05:47:32;99614.59;;;-14.07;77.59
14790;BME280;7486;51.010;10.366;2022-12-18T05:49:59;99730.47;;;-13.12;77.35
14790;BME280;7486;51.010;10.366;2022-12-18T05:52:27;99702.75;;;-13.33;76.92
14790;BME280;7486;51.010;10.366;2022-12-18T05:54:54;99687.56;;;-13.39;75.93
14790;BME280;7486;51.010;10.366;2022-12-18T05:57:20;99540.41;;;-14.44;75.68
14790;BME280;7486;51.010;10.366;2022-12-18T05:59:47;99626.63;;;-14.18;76.07
14790;BME280;7486;51.010;10.366;2022-12-18T06:02:14;99759.06;;;-13.51;75.48
14790;BME280;7486;51.010;10.366;2022-12-18T06:04:41;99686.03;;;-14.18;76.51
14790;BME280;7486;51.010;10.366;2022-12-18T06:07:08;99739.63;;;-13.58;77.07
14790;BME280;7486;51.010;10.366;2022-12-18T06:09:35;99613.81;;;-14.14;76.28
14790;BME280;7486;51.010;10.366;2022-12-18T06:12:01;99707.97;;;-13.42;76.09
14790;BME280;7486;51.010;10.366;2022-12-18T06:14:28;99625.22;;;-13.77;75.43
14790;BME280;7486;51.010;10.366;2022-12-18T06:16:55;99447.44;;;-14.66;74.89
14790;BME280;7486;51.010;10.366;2022-12-18T06:19:22;99614.06;;;-13.66;73.08
14790;BME280;7486;51.010;10.366;2022-12-18T06:21:49;99673.28;;;-13.51;73.55
14790;BME280;7486;51.010;10.366;2022-12-18T06:24:16;99525.16;;;-14.43;73.58
14790;BME280;7486;51.010;10.366;2022-12-18T06:26:43;99544.78;;;-14.52;72.82
14790;BME280;7486;51.010;10.366;2022-12-18T06:29:10;99673.78;;;-13.90;73.02
14790;BME280;7486;51.010;10.366;2022-12-18T06:31:38;99664.88;;;-13.57;73.42
14790;BME280;7486;51.010;10.366;2022-12-18T06:34:05;99596.28;;;-13.71;71.41
14790;BME280;7486;51.010;10.366;2022-12-18T06:36:32;99745.44;;;-12.89;71.14
14790;BME280;7486;51.010;10.366;2022-12-18T06:38:59;99668.88;;;-13.41;72.01
14790;BME280;7486;51.010;10.366;2022-12-18T06:41:26;99732.81;;;-13.00;70.87
14790;BME280;7486;51.010;10.366;2022-12-18T06:43:52;99606.94;;;-14.06;72.00
14790;BME280;7486;51.010;10.366;2022-12-18T06:46:25;99329.25;;;-15.66;72.17
14790;BME280;7486;51.010;10.366;2022-12-18T06:48:52;99635.44;;;-13.80;72.26
14790;BME280;7486;51.010;10.366;2022-12-18T06:51:20;99424.97;;;-14.97;71.20
14790;BME280;7486;51.010;10.366;2022-12-18T06:53:49;99737.44;;;-13.23;71.68
14790;BME280;7486;51.010;10.366;2022-12-18T06:56:16;99738.88;;;-13.07;71.82
14790;BME280;7486;51.010;10.366;2022-12-18T06:58:43;99625.31;;;-13.83;71.55
14790;BME280;7486;51.010;10.366;2022-12-18T07:01:11;99754.97;;;-13.02;70.64
14790;BME280;7486;51.010;10.366;2022-12-18T07:03:39;99750.97;;;-13.19;71.29
14790;BME280;7486;51.010;10.366;2022-12-18T07:06:13;99707.00;;;-13.32;72.00
14790;BME280;7486;51.010;10.366;2022-12-18T07:08:40;99677.44;;;-13.45;71.55
14790;BME280;7486;51.010;10.366;2022-12-18T07:11:07;99636.06;;;-13.61;71.30
14790;BME280;7486;51.010;10.366;2022-12-18T07:13:34;99715.13;;;-13.10;70.86
14790;BME280;7486;51.010;10.366;2022-12-18T07:16:20;99715.13;;;-13.09;70.46
14790;BME280;7486;51.010;10.366;2022-12-18T07:18:52;99772.28;;;-12.67;70.63
14790;BME280;7486;51.010;10.366;2022-12-18T07:21:20;99715.56;;;-13.38;69.92
14790;BME280;7486;51.010;10.366;2022-12-18T07:23:47;99632.13;;;-13.85;68.88
14790;BME280;7486;51.010;10.366;2022-12-18T07:26:17;99794.31;;;-13.21;67.96
14790;BME280;7486;51.010;10.366;2022-12-18T07:28:44;99687.56;;;-14.06;69.90
14790;BME280;7486;51.010;10.366;2022-12-18T07:31:13;99796.97;;;-13.27;70.63
14790;BME280;7486;51.010;10.366;2022-12-18T07:33:40;99632.63;;;-14.24;71.08
14790;BME280;7486;51.010;10.366;2022-12-18T07:36:09;99647.00;;;-14.18;71.53
14790;BME280;7486;51.010;10.366;2022-12-18T07:38:36;99792.75;;;-13.28;71.31
14790;BME280;7486;51.010;10.366;2022-12-18T07:41:09;99798.09;;;-13.46;71.20
14790;BME280;7486;51.010;10.366;2022-12-18T07:43:37;99815.00;;;-13.42;71.46
14790;BME280;7486;51.010;10.366;2022-12-18T07:46:06;99774.66;;;-13.76;71.21
14790;BME280;7486;51.010;10.366;2022-12-18T07:48:34;99471.34;;;-15.57;71.37
14790;BME280;7486;51.010;10.366;2022-12-18T07:51:02;99820.91;;;-13.37;71.25
14790;BME280;7486;51.010;10.366;2022-12-18T07:53:31;99757.94;;;-13.98;72.41
14790;BME280;7486;51.010;10.366;2022-12-18T07:56:11;99826.00;;;-13.37;71.62
14790;BME280;7486;51.010;10.366;2022-12-18T07:58:58;99710.38;;;-13.96;71.77
14790;BME280;7486;51.010;10.366;2022-12-18T08:01:30;99340.19;;;-16.47;71.72
14790;BME280;7486;51.010;10.366;2022-12-18T08:03:58;99800.09;;;-13.73;73.59
14790;BME280;7486;51.010;10.366;2022-12-18T08:06:24;99502.53;;;-15.39;72.44
14790;BME280;7486;51.010;10.366;2022-12-18T08:08:53;99318.13;;;-16.34;70.84
14790;BME280;7486;51.010;10.366;2022-12-18T08:11:20;99725.56;;;-13.88;70.17
14790;BME280;7486;51.010;10.366;2022-12-18T08:13:48;99754.19;;;-13.66;70.67
14790;BME280;7486;51.010;10.366;2022-12-18T08:16:15;99822.31;;;-13.15;70.89
14790;BME280;7486;51.010;10.366;2022-12-18T08:18:42;99737.16;;;-13.63;70.57
14790;BME280;7486;51.010;10.366;2022-12-18T08:21:10;99728.63;;;-13.62;71.22
14790;BME280;7486;51.010;10.366;2022-12-18T08:23:38;99701.63;;;-13.73;71.11
14790;BME280;7486;51.010;10.366;2022-12-18T08:26:10;99814.56;;;-13.09;71.14
14790;BME280;7486;51.010;10.366;2022-12-18T08:28:37;99803.00;;;-13.31;72.20
14790;BME280;7486;51.010;10.366;2022-12-18T08:31:04;99380.25;;;-15.86;71.94
14790;BME280;7486;51.010;10.366;2022-12-18T08:33:32;99700.28;;;-14.05;72.26
14790;BME280;7486;51.010;10.366;2022-12-18T08:36:00;99787.56;;;-13.25;72.93
14790;BME280;7486;51.010;10.366;2022-12-18T08:38:27;99721.16;;;-13.74;72.69
14790;BME280;7486;51.010;10.366;2022-12-18T08:41:02;99738.91;;;-13.66;73.62
14790;BME280;7486;51.010;10.366;2022-12-18T08:43:29;99735.38;;;-13.56;73.87
14790;BME280;7486;51.010;10.366;2022-12-18T08:45:56;99736.44;;;-13.76;74.25
14790;BME280;7486;51.010;10.366;2022-12-18T08:48:23;99745.47;;;-13.52;74.55
14790;BME280;7486;51.010;10.366;2022-12-18T08:50:57;99730.16;;;-13.47;73.86
14790;BME280;7486;51.010;10.366;2022-12-18T08:53:25;99764.63;;;-13.22;74.33
14790;BME280;7486;51.010;10.366;2022-12-18T08:55:58;99750.00;;;-13.11;73.99
14790;BME280;7486;51.010;10.366;2022-12-18T08:58:24;99753.94;;;-13.47;74.20
14790;BME280;7486;51.010;10.366;2022-12-18T09:00:51;99692.19;;;-13.68;74.88
14790;BME280;7486;51.010;10.366;2022-12-18T09:03:19;99738.13;;;-13.12;74.14
14790;BME280;7486;51.010;10.366;2022-12-18T09:05:46;99700.25;;;-13.36;73.97
14790;BME280;7486;51.010;10.366;2022-12-18T09:08:13;99736.47;;;-13.16;74.67
14790;BME280;7486;51.010;10.366;2022-12-18T09:10:47;99791.25;;;-12.83;74.40
14790;BME280;7486;51.010;10.366;2022-12-18T09:13:15;99780.78;;;-12.66;74.90
14790;BME280;7486;51.010;10.366;2022-12-18T09:15:43;99779.44;;;-12.35;73.91
14790;BME280;7486;51.010;10.366;2022-12-18T09:18:09;99677.34;;;-12.87;73.66
14790;BME280;7486;51.010;10.366;2022-12-18T09:20:37;99770.06;;;-12.36;73.19
14790;BME280;7486;51.010;10.366;2022-12-18T09:23:05;99626.66;;;-13.05;73.74
14790;BME280;7486;51.010;10.366;2022-12-18T09:25:33;99662.41;;;-12.59;73.34
14790;BME280;7486;51.010;10.366;2022-12-18T09:28:00;99597.59;;;-12.95;73.41
14790;BME280;7486;51.010;10.366;2022-12-18T09:30:26;99742.59;;;-12.22;73.05
14790;BME280;7486;51.010;10.366;2022-12-18T09:32:53;99640.38;;;-12.62;73.72
14790;BME280;7486;51.010;10.366;2022-12-18T09:35:20;99671.41;;;-12.39;73.59
14790;BME280;7486;51.010;10.366;2022-12-18T09:37:47;99687.56;;;-12.38;74.86
14790;BME280;7486;51.010;10.366;2022-12-18T09:40:20;99688.63;;;-12.02;75.14
14790;BME280;7486;51.010;10.366;2022-12-18T09:42:53;99727.28;;;-11.78;75.46
14790;BME280;7486;51.010;10.366;2022-12-18T09:45:21;99450.56;;;-13.42;75.40
14790;BME280;7486;51.010;10.366;2022-12-18T09:47:48;99678.75;;;-11.79;75.84
14790;BME280;7486;51.010;10.366;2022-12-18T09:50:37;99678.75;;;-11.79;75.70
14790;BME280;7486;51.010;10.366;2022-12-18T09:53:19;99670.28;;;-11.81;76.58
14790;BME280;7486;51.010;10.366;2022-12-18T09:55:47;99735.41;;;-11.19;76.43
14790;BME280;7486;51.010;10.366;2022-12-18T09:58:41;99741.06;;;-11.05;75.71
14790;BME280;7486;51.010;10.366;2022-12-18T10:01:12;99736.91;;;-10.75;75.81
14790;BME280;7486;51.010;10.366;2022-12-18T10:03:44;99585.59;;;-11.64;75.27
14790;BME280;7486;51.010;10.366;2022-12-18T10:06:33;99740.41;;;-10.78;74.70
14790;BME280;7486;51.010;10.366;2022-12-18T10:14:47;99736.16;;;-10.79;74.62
14790;BME280;7486;51.010;10.366;2022-12-18T10:17:25;99699.63;;;-10.85;74.90
14790;BME280;7486;51.010;10.366;2022-12-18T10:19:56;99662.59;;;-11.04;74.49
14790;BME280;7486;51.010;10.366;2022-12-18T10:28:20;99686.06;;;-10.21;73.75
14790;BME280;7486;51.010;10.366;2022-12-18T10:30:46;99721.09;;;-10.23;73.51
14790;BME280;7486;51.010;10.366;2022-12-18T10:33:16;99582.97;;;-10.62;74.21
14790;BME280;7486;51.010;10.366;2022-12-18T10:35:45;99686.81;;;-9.87;73.32
14790;BME280;7486;51.010;10.366;2022-12-18T10:41:05;99738.19;;;-9.61;72.86
14790;BME280;7486;51.010;10.366;2022-12-18T10:43:34;99522.47;;;-10.95;72.68
14790;BME280;7486;51.010;10.366;2022-12-18T10:48:36;99639.84;;;-10.18;72.98
14790;BME280;7486;51.010;10.366;2022-12-18T10:51:07;99623.34;;;-10.39;73.93
14790;BME280;7486;51.010;10.366;2022-12-18T10:54:02;99636.63;;;-9.95;74.06
14790;BME280;7486;51.010;10.366;2022-12-18T10:56:34;99679.03;;;-9.54;73.86
14790;BME280;7486;51.010;10.366;2022-12-18T10:59:07;99624.66;;;-9.66;73.10
14790;BME280;7486;51.010;10.366;2022-12-18T11:04:27;99735.84;;;-9.10;73.02
14790;BME280;7486;51.010;10.366;2022-12-18T11:07:07;99739.78;;;-9.27;74.22
14790;BME280;7486;51.010;10.366;2022-12-18T11:10:00;99737.78;;;-9.18;74.74
14790;BME280;7486;51.010;10.366;2022-12-18T11:12:28;99741.63;;;-8.75;75.25
14790;BME280;7486;51.010;10.366;2022-12-18T11:14:58;99742.69;;;-8.56;74.05
14790;BME280;7486;51.010;10.366;2022-12-18T11:17:35;99339.97;;;-11.25;74.07
14790;BME280;7486;51.010;10.366;2022-12-18T11:20:07;99693.69;;;-9.02;74.72
14790;BME280;7486;51.010;10.366;2022-12-18T11:22:55;99676.38;;;-8.96;74.57
14790;BME280;7486;51.010;10.366;2022-12-18T11:25:24;99727.25;;;-8.54;74.59
14790;BME280;7486;51.010;10.366;2022-12-18T11:28:25;99714.25;;;-8.50;74.41
14790;BME280;7486;51.010;10.366;2022-12-18T11:31:17;99694.56;;;-8.49;74.32
14790;BME280;7486;51.010;10.366;2022-12-18T11:36:46;99698.53;;;-7.91;74.81
14790;BME280;7486;51.010;10.366;2022-12-18T11:39:24;99688.50;;;-7.99;75.09
14790;BME280;7486;51.010;10.366;2022-12-18T11:42:02;99629.66;;;-8.31;74.10
14790;BME280;7486;51.010;10.366;2022-12-18T11:49:55;99658.66;;;-7.80;72.68
14790;BME280;7486;51.010;10.366;2022-12-18T11:52:30;99647.63;;;-7.83;72.73
14790;BME280;7486;51.010;10.366;2022-12-18T11:55:00;99636.47;;;-7.82;72.63
14790;BME280;7486;51.010;10.366;2022-12-18T11:58:00;99587.53;;;-8.27;71.21
14790;BME280;7486;51.010;10.366;2022-12-18T12:00:30;99663.91;;;-8.06;71.94
14790;BME280;7486;51.010;10.366;2022-12-18T12:16:22;99646.25;;;-7.69;72.46
14790;BME280;7486;51.010;10.366;2022-12-18T12:21:49;99540.81;;;-8.62;73.44
14790;BME280;7486;51.010;10.366;2022-12-18T12:30:03;99570.66;;;-8.11;72.99
14790;BME280;7486;51.010;10.366;2022-12-18T12:33:03;99637.72;;;-7.47;72.75
14790;BME280;7486;51.010;10.366;2022-12-18T12:36:05;99530.78;;;-8.21;72.66
14790;BME280;7486;51.010;10.366;2022-12-18T12:38:33;99569.94;;;-7.91;72.82
14790;BME280;7486;51.010;10.366;2022-12-18T12:41:06;99602.69;;;-7.96;73.32
14790;BME280;7486;51.010;10.366;2022-12-18T12:43:46;99570.00;;;-7.93;73.02
14790;BME280;7486;51.010;10.366;2022-12-18T12:46:18;99623.00;;;-7.44;72.97
14790;BME280;7486;51.010;10.366;2022-12-18T12:48:58;99608.28;;;-7.40;72.53
14790;BME280;7486;51.010;10.366;2022-12-18T12:51:35;99500.00;;;-8.01;72.48
14790;BME280;7486;51.010;10.366;2022-12-18T12:54:05;98926.69;;;-11.29;72.21
14790;BME280;7486;51.010;10.366;2022-12-18T12:59:22;99387.63;;;-8.41;72.09
14790;BME280;7486;51.010;10.366;2022-12-18T13:02:16;99584.66;;;-7.08;72.41
14790;BME280;7486;51.010;10.366;2022-12-18T13:13:15;99563.59;;;-7.39;74.05
14790;BME280;7486;51.010;10.366;2022-12-18T13:16:07;99466.31;;;-8.15;74.54
14790;BME280;7486;51.010;10.366;2022-12-18T13:18:35;99485.78;;;-8.54;75.72
14790;BME280;7486;51.010;10.366;2022-12-18T13:21:28;99512.91;;;-8.47;76.52
14790;BME280;7486;51.010;10.366;2022-12-18T13:23:53;99503.41;;;-8.22;76.64
14790;BME280;7486;51.010;10.366;2022-12-18T13:28:57;99526.28;;;-7.93;75.92
14790;BME280;7486;51.010;10.366;2022-12-18T13:34:24;99504.38;;;-8.03;75.37
14790;BME280;7486;51.010;10.366;2022-12-18T13:39:57;99424.00;;;-8.51;74.27
14790;BME280;7486;51.010;10.366;2022-12-18T13:44:50;99512.13;;;-8.26;75.18
14790;BME280;7486;51.010;10.366;2022-12-18T13:47:33;99563.34;;;-7.98;75.47
14790;BME280;7486;51.010;10.366;2022-12-18T13:50:25;99555.94;;;-8.06;74.91
14790;BME280;7486;51.010;10.366;2022-12-18T13:53:01;99283.06;;;-9.74;75.95
14790;BME280;7486;51.010;10.366;2022-12-18T13:55:29;99508.00;;;-8.30;76.19
14790;BME280;7486;51.010;10.366;2022-12-18T13:58:05;99537.66;;;-7.98;76.07
14790;BME280;7486;51.010;10.366;2022-12-18T14:00:32;99417.19;;;-8.99;75.86
14790;BME280;7486;51.010;10.366;2022-12-18T14:02:59;99564.19;;;-7.98;75.62
14790;BME280;7486;51.010;10.366;2022-12-18T14:05:32;99567.97;;;-8.08;75.89
14790;BME280;7486;51.010;10.366;2022-12-18T14:08:05;99568.88;;;-7.86;75.90
14790;BME280;7486;51.010;10.366;2022-12-18T14:10:35;99516.66;;;-8.33;75.47
14790;BME280;7486;51.010;10.366;2022-12-18T14:13:20;99507.31;;;-8.12;75.21
14790;BME280;7486;51.010;10.366;2022-12-18T14:15:48;99588.53;;;-7.40;73.84
14790;BME280;7486;51.010;10.366;2022-12-18T14:18:34;99600.78;;;-7.25;72.68
14790;BME280;7486;51.010;10.366;2022-12-18T14:21:03;99529.69;;;-7.92;73.55
14790;BME280;7486;51.010;10.366;2022-12-18T14:25:58;99597.06;;;-7.39;71.98
14790;BME280;7486;51.010;10.366;2022-12-18T14:28:31;99541.13;;;-8.23;73.16
14790;BME280;7486;51.010;10.366;2022-12-18T14:30:58;99533.53;;;-8.26;73.41
14790;BME280;7486;51.010;10.366;2022-12-18T14:33:26;99449.44;;;-8.45;73.34
14790;BME280;7486;51.010;10.366;2022-12-18T14:36:00;99581.03;;;-7.68;72.61
14790;BME280;7486;51.010;10.366;2022-12-18T14:38:30;99509.38;;;-7.98;72.34
14790;BME280;7486;51.010;10.366;2022-12-18T14:41:22;99568.16;;;-7.24;71.72
14790;BME280;7486;51.010;10.366;2022-12-18T14:43:49;99536.38;;;-7.45;70.95
14790;BME280;7486;51.010;10.366;2022-12-18T14:46:44;99564.13;;;-7.10;70.86
14790;BME280;7486;51.010;10.366;2022-12-18T14:49:32;99426.00;;;-7.93;69.93
14790;BME280;7486;51.010;10.366;2022-12-18T14:52:02;99486.94;;;-7.53;70.09
14790;BME280;7486;51.010;10.366;2022-12-18T14:54:30;99464.91;;;-7.59;69.87
14790;BME280;7486;51.010;10.366;2022-12-18T14:59:44;99558.72;;;-7.03;69.02
14790;BME280;7486;51.010;10.366;2022-12-18T15:02:21;99548.84;;;-7.14;68.60
14790;BME280;7486;51.010;10.366;2022-12-18T15:05:14;99538.09;;;-7.24;69.72
14790;BME280;7486;51.010;10.366;2022-12-18T15:07:53;99553.03;;;-7.12;69.10
14790;BME280;7486;51.010;10.366;2022-12-18T15:10:26;99556.31;;;-7.08;69.49